sensor_id;sensor_type;location;lat;lon;timestamp;temperature;humidity
70074;DHT22;57445;51.058;3.698;2023-04-24T00:02:09;11.10;99.90
70074;DHT22;57445;51.058;3.698;2023-04-24T00:04:39;11.10;99.90
70074;DHT22;57445;51.058;3.698;2023-04-24T00:07:07;11.00;99.90
70074;DHT22;57445;51.058;3.698;2023-04-24T00:09:35;11.00;99.90
70074;DHT22;57445;51.058;3.698;2023-04-24T00:12:02;11.00;99.90
70074;DHT22;57445;51.058;3.698;2023-04-24T00:14:30;11.20;99.90
70074;DHT22;57445;51.058;3.698;2023-04-24T00:16:59;11.20;99.90
70074;DHT22;57445;51.058;3.698;2023-04-24T00:19:27;11.20;99.90
70074;DHT22;57445;51.058;3.698;2023-04-24T00:21:55;11.40;99.90
70074;DHT22;57445;51.058;3.698;2023-04-24T00:24:27;11.30;99.90
70074;DHT22;57445;51.058;3.698;2023-04-24T00:26:59;11.30;99.90
70074;DHT22;57445;51.058;3.698;2023-04-24T00:29:31;11.30;99.90
70074;DHT22;57445;51.058;3.698;2023-04-24T00:32:05;11.10;99.90
70074;DHT22;57445;51.058;3.698;2023-04-24T00:34:37;10.90;99.90
70074;DHT22;57445;51.058;3.698;2023-04-24T00:37:08;11.00;99.90
70074;DHT22;57445;51.058;3.698;2023-04-24T00:39:37;11.10;99.90
70074;DHT22;57445;51.058;3.698;2023-04-24T00:42:09;11.20;99.90
70074;DHT22;57445;51.058;3.698;2023-04-24T00:44:37;11.20;99.90
70074;DHT22;57445;51.058;3.698;2023-04-24T00:47:05;11.20;99.90
70074;DHT22;57445;51.058;3.698;2023-04-24T00:49:37;11.10;99.90
70074;DHT22;57445;51.058;3.698;2023-04-24T00:52:05;11.00;99.90
70074;DHT22;57445;51.058;3.698;2023-04-24T00:54:39;11.00;99.90
70074;DHT22;57445;51.058;3.698;2023-04-24T00:57:06;11.00;99.90
70074;DHT22;57445;51.058;3.698;2023-04-24T00:59:38;11.00;99.90
70074;DHT22;57445;51.058;3.698;2023-04-24T01:02:08;10.90;99.90
70074;DHT22;57445;51.058;3.698;2023-04-24T01:04:37;11.00;99.90
70074;DHT22;57445;51.058;3.698;2023-04-24T01:07:04;11.00;99.90
70074;DHT22;57445;51.058;3.698;2023-04-24T01:09:36;10.90;99.90
70074;DHT22;57445;51.058;3.698;2023-04-24T01:12:08;11.00;99.90
70074;DHT22;57445;51.058;3.698;2023-04-24T01:14:40;11.00;99.90
70074;DHT22;57445;51.058;3.698;2023-04-24T01:17:09;10.80;99.90
70074;DHT22;57445;51.058;3.698;2023-04-24T01:19:41;11.00;99.90
70074;DHT22;57445;51.058;3.698;2023-04-24T01:22:16;10.90;99.90
70074;DHT22;57445;51.058;3.698;2023-04-24T01:24:48;10.90;99.90
70074;DHT22;57445;51.058;3.698;2023-04-24T01:27:16;10.80;99.90
70074;DHT22;57445;51.058;3.698;2023-04-24T01:29:48;10.80;99.90
70074;DHT22;57445;51.058;3.698;2023-04-24T01:32:17;10.80;99.90
70074;DHT22;57445;51.058;3.698;2023-04-24T01:34:52;10.60;99.90
70074;DHT22;57445;51.058;3.698;2023-04-24T01:37:21;10.70;99.90
70074;DHT22;57445;51.058;3.698;2023-04-24T01:39:53;10.60;99.90
70074;DHT22;57445;51.058;3.698;2023-04-24T01:42:25;10.80;99.90
70074;DHT22;57445;51.058;3.698;2023-04-24T01:44:57;10.70;99.90
70074;DHT22;57445;51.058;3.698;2023-04-24T01:47:31;10.70;99.90
70074;DHT22;57445;51.058;3.698;2023-04-24T01:50:04;10.80;99.90
70074;DHT22;57445;51.058;3.698;2023-04-24T01:52:33;11.00;99.90
70074;DHT22;57445;51.058;3.698;2023-04-24T01:55:02;10.70;99.90
70074;DHT22;57445;51.058;3.698;2023-04-24T01:57:34;10.90;99.90
70074;DHT22;57445;51.058;3.698;2023-04-24T02:00:02;10.80;99.90
70074;DHT22;57445;51.058;3.698;2023-04-24T02:02:32;10.50;99.90
70074;DHT22;57445;51.058;3.698;2023-04-24T02:05:00;10.50;99.90
70074;DHT22;57445;51.058;3.698;2023-04-24T02:07:28;10.60;99.90
70074;DHT22;57445;51.058;3.698;2023-04-24T02:10:02;10.70;99.90
70074;DHT22;57445;51.058;3.698;2023-04-24T02:12:34;10.70;99.90
70074;DHT22;57445;51.058;3.698;2023-04-24T02:15:06;10.50;99.90
70074;DHT22;57445;51.058;3.698;2023-04-24T02:17:38;10.40;99.90
70074;DHT22;57445;51.058;3.698;2023-04-24T02:20:06;10.40;99.90
70074;DHT22;57445;51.058;3.698;2023-04-24T02:22:38;10.30;99.90
70074;DHT22;57445;51.058;3.698;2023-04-24T02:25:08;10.40;99.90
70074;DHT22;57445;51.058;3.698;2023-04-24T02:27:35;10.20;99.90
70074;DHT22;57445;51.058;3.698;2023-04-24T02:30:09;10.20;99.90
70074;DHT22;57445;51.058;3.698;2023-04-24T02:32:36;10.20;99.90
70074;DHT22;57445;51.058;3.698;2023-04-24T02:35:05;10.10;99.90
70074;DHT22;57445;51.058;3.698;2023-04-24T02:37:37;10.10;99.90
70074;DHT22;57445;51.058;3.698;2023-04-24T02:40:11;10.20;99.90
70074;DHT22;57445;51.058;3.698;2023-04-24T02:42:43;10.30;99.90
70074;DHT22;57445;51.058;3.698;2023-04-24T02:45:15;10.40;99.90
70074;DHT22;57445;51.058;3.698;2023-04-24T02:47:42;10.40;99.90
70074;DHT22;57445;51.058;3.698;2023-04-24T02:50:14;10.30;99.90
70074;DHT22;57445;51.058;3.698;2023-04-24T02:52:46;10.30;99.90
70074;DHT22;57445;51.058;3.698;2023-04-24T02:55:20;10.10;99.90
70074;DHT22;57445;51.058;3.698;2023-04-24T02:57:51;10.10;99.90
70074;DHT22;57445;51.058;3.698;2023-04-24T03:00:23;10.00;99.90
70074;DHT22;57445;51.058;3.698;2023-04-24T03:02:55;9.90;99.90
70074;DHT22;57445;51.058;3.698;2023-04-24T03:05:27;9.80;99.90
70074;DHT22;57445;51.058;3.698;2023-04-24T03:08:01;9.70;99.90
70074;DHT22;57445;51.058;3.698;2023-04-24T03:10:30;9.80;99.90
70074;DHT22;57445;51.058;3.698;2023-04-24T03:12:58;9.80;99.90
70074;DHT22;57445;51.058;3.698;2023-04-24T03:15:30;9.70;99.90
70074;DHT22;57445;51.058;3.698;2023-04-24T03:18:02;9.70;99.90
70074;DHT22;57445;51.058;3.698;2023-04-24T03:20:34;9.80;99.90
70074;DHT22;57445;51.058;3.698;2023-04-24T03:23:07;9.70;99.90
70074;DHT22;57445;51.058;3.698;2023-04-24T03:25:40;9.80;99.90
70074;DHT22;57445;51.058;3.698;2023-04-24T03:28:13;9.80;99.90
70074;DHT22;57445;51.058;3.698;2023-04-24T03:30:40;9.70;99.90
70074;DHT22;57445;51.058;3.698;2023-04-24T03:33:08;9.60;99.90
70074;DHT22;57445;51.058;3.698;2023-04-24T03:35:40;9.50;99.90
70074;DHT22;57445;51.058;3.698;2023-04-24T03:38:12;9.50;99.90
70074;DHT22;57445;51.058;3.698;2023-04-24T03:40:45;9.40;99.90
70074;DHT22;57445;51.058;3.698;2023-04-24T03:43:17;9.40;99.90
70074;DHT22;57445;51.058;3.698;2023-04-24T03:45:45;9.40;99.90
70074;DHT22;57445;51.058;3.698;2023-04-24T03:48:17;9.40;99.90
70074;DHT22;57445;51.058;3.698;2023-04-24T03:50:49;9.40;99.90
70074;DHT22;57445;51.058;3.698;2023-04-24T03:53:21;9.30;99.90
70074;DHT22;57445;51.058;3.698;2023-04-24T03:55:54;9.30;99.90
70074;DHT22;57445;51.058;3.698;2023-04-24T03:58:26;9.20;99.90
70074;DHT22;57445;51.058;3.698;2023-04-24T04:00:54;9.20;99.90
70074;DHT22;57445;51.058;3.698;2023-04-24T04:03:27;9.20;99.90
70074;DHT22;57445;51.058;3.698;2023-04-24T04:05:55;9.20;99.90
70074;DHT22;57445;51.058;3.698;2023-04-24T04:08:27;9.20;99.90
70074;DHT22;57445;51.058;3.698;2023-04-24T04:10:55;9.20;99.90
70074;DHT22;57445;51.058;3.698;2023-04-24T04:13:27;9.20;99.90
70074;DHT22;57445;51.058;3.698;2023-04-24T04:16:00;9.20;99.90
70074;DHT22;57445;51.058;3.698;2023-04-24T04:18:32;9.30;99.90
70074;DHT22;57445;51.058;3.698;2023-04-24T04:21:04;9.40;99.90
70074;DHT22;57445;51.058;3.698;2023-04-24T04:23:36;9.40;99.90
70074;DHT22;57445;51.058;3.698;2023-04-24T04:26:10;9.40;99.90
70074;DHT22;57445;51.058;3.698;2023-04-24T04:28:38;9.40;99.90
70074;DHT22;57445;51.058;3.698;2023-04-24T04:31:06;9.30;99.90
70074;DHT22;57445;51.058;3.698;2023-04-24T04:33:38;9.40;99.90
70074;DHT22;57445;51.058;3.698;2023-04-24T04:36:05;9.40;99.90
70074;DHT22;57445;51.058;3.698;2023-04-24T04:38:38;9.40;99.90
70074;DHT22;57445;51.058;3.698;2023-04-24T04:41:12;9.40;99.90
70074;DHT22;57445;51.058;3.698;2023-04-24T04:43:44;9.70;99.90
70074;DHT22;57445;51.058;3.698;2023-04-24T04:46:12;9.50;99.90
70074;DHT22;57445;51.058;3.698;2023-04-24T04:48:40;9.60;99.90
70074;DHT22;57445;51.058;3.698;2023-04-24T04:51:07;9.70;99.90
70074;DHT22;57445;51.058;3.698;2023-04-24T04:53:39;9.70;99.90
70074;DHT22;57445;51.058;3.698;2023-04-24T04:56:16;9.80;99.90
70074;DHT22;57445;51.058;3.698;2023-04-24T04:58:48;9.90;99.90
70074;DHT22;57445;51.058;3.698;2023-04-24T05:01:15;10.00;99.90
70074;DHT22;57445;51.058;3.698;2023-04-24T05:03:47;10.00;99.90
70074;DHT22;57445;51.058;3.698;2023-04-24T05:06:19;9.90;99.90
70074;DHT22;57445;51.058;3.698;2023-04-24T05:08:48;9.90;99.90
70074;DHT22;57445;51.058;3.698;2023-04-24T05:11:21;9.90;99.90
70074;DHT22;57445;51.058;3.698;2023-04-24T05:13:49;9.80;99.90
70074;DHT22;57445;51.058;3.698;2023-04-24T05:16:17;9.80;99.90
70074;DHT22;57445;51.058;3.698;2023-04-24T05:18:48;9.80;99.90
70074;DHT22;57445;51.058;3.698;2023-04-24T05:21:21;9.80;99.90
70074;DHT22;57445;51.058;3.698;2023-04-24T05:23:48;9.70;99.90
70074;DHT22;57445;51.058;3.698;2023-04-24T05:26:22;9.70;99.90
70074;DHT22;57445;51.058;3.698;2023-04-24T05:28:50;9.70;99.90
70074;DHT22;57445;51.058;3.698;2023-04-24T05:31:17;9.80;99.90
70074;DHT22;57445;51.058;3.698;2023-04-24T05:33:44;9.90;99.90
70074;DHT22;57445;51.058;3.698;2023-04-24T05:36:11;10.00;99.90
70074;DHT22;57445;51.058;3.698;2023-04-24T05:38:43;9.90;99.90
70074;DHT22;57445;51.058;3.698;2023-04-24T05:41:15;10.20;99.90
70074;DHT22;57445;51.058;3.698;2023-04-24T05:43:44;10.10;99.90
70074;DHT22;57445;51.058;3.698;2023-04-24T05:46:16;10.00;99.90
70074;DHT22;57445;51.058;3.698;2023-04-24T05:48:48;10.10;99.90
70074;DHT22;57445;51.058;3.698;2023-04-24T05:51:20;10.20;99.90
70074;DHT22;57445;51.058;3.698;2023-04-24T05:53:52;10.10;99.90
70074;DHT22;57445;51.058;3.698;2023-04-24T05:56:19;10.10;99.90
70074;DHT22;57445;51.058;3.698;2023-04-24T05:58:49;10.10;99.90
70074;DHT22;57445;51.058;3.698;2023-04-24T06:01:16;10.20;99.90
70074;DHT22;57445;51.058;3.698;2023-04-24T06:03:48;10.20;99.90
70074;DHT22;57445;51.058;3.698;2023-04-24T06:06:20;10.20;99.90
70074;DHT22;57445;51.058;3.698;2023-04-24T06:08:48;10.20;99.90
70074;DHT22;57445;51.058;3.698;2023-04-24T06:11:15;10.10;99.90
70074;DHT22;57445;51.058;3.698;2023-04-24T06:13:49;10.20;99.90
70074;DHT22;57445;51.058;3.698;2023-04-24T06:16:22;10.30;99.90
70074;DHT22;57445;51.058;3.698;2023-04-24T06:18:54;10.30;99.90
70074;DHT22;57445;51.058;3.698;2023-04-24T06:21:22;10.20;99.90
70074;DHT22;57445;51.058;3.698;2023-04-24T06:23:56;10.40;99.90
70074;DHT22;57445;51.058;3.698;2023-04-24T06:26:28;10.20;99.90
70074;DHT22;57445;51.058;3.698;2023-04-24T06:28:57;10.30;99.90
70074;DHT22;57445;51.058;3.698;2023-04-24T06:31:26;10.40;99.90
70074;DHT22;57445;51.058;3.698;2023-04-24T06:33:58;10.70;99.90
70074;DHT22;57445;51.058;3.698;2023-04-24T06:36:30;10.80;99.90
70074;DHT22;57445;51.058;3.698;2023-04-24T06:39:05;10.90;99.90
70074;DHT22;57445;51.058;3.698;2023-04-24T06:41:37;10.80;99.90
70074;DHT22;57445;51.058;3.698;2023-04-24T06:44:11;10.90;99.90
70074;DHT22;57445;51.058;3.698;2023-04-24T06:46:45;10.90;99.90
70074;DHT22;57445;51.058;3.698;2023-04-24T06:49:12;10.90;99.90
70074;DHT22;57445;51.058;3.698;2023-04-24T06:51:42;11.20;99.90
70074;DHT22;57445;51.058;3.698;2023-04-24T06:54:10;11.40;99.90
70074;DHT22;57445;51.058;3.698;2023-04-24T06:56:41;11.40;99.90
70074;DHT22;57445;51.058;3.698;2023-04-24T06:59:09;11.50;99.90
70074;DHT22;57445;51.058;3.698;2023-04-24T07:01:38;11.40;99.90
70074;DHT22;57445;51.058;3.698;2023-04-24T07:04:10;11.30;99.90
70074;DHT22;57445;51.058;3.698;2023-04-24T07:06:42;11.40;99.90
70074;DHT22;57445;51.058;3.698;2023-04-24T07:09:14;11.00;99.90
70074;DHT22;57445;51.058;3.698;2023-04-24T07:11:46;10.70;99.90
70074;DHT22;57445;51.058;3.698;2023-04-24T07:14:19;10.70;99.90
70074;DHT22;57445;51.058;3.698;2023-04-24T07:16:52;10.60;99.90
70074;DHT22;57445;51.058;3.698;2023-04-24T07:19:19;10.50;99.90
70074;DHT22;57445;51.058;3.698;2023-04-24T07:21:47;10.30;99.90
70074;DHT22;57445;51.058;3.698;2023-04-24T07:24:19;10.40;99.90
70074;DHT22;57445;51.058;3.698;2023-04-24T07:26:51;10.50;99.90
70074;DHT22;57445;51.058;3.698;2023-04-24T07:29:19;10.60;99.90
70074;DHT22;57445;51.058;3.698;2023-04-24T07:31:52;10.70;99.90
70074;DHT22;57445;51.058;3.698;2023-04-24T07:34:25;10.70;99.90
70074;DHT22;57445;51.058;3.698;2023-04-24T07:36:57;10.80;99.90
70074;DHT22;57445;51.058;3.698;2023-04-24T07:39:24;10.90;99.90
70074;DHT22;57445;51.058;3.698;2023-04-24T07:41:52;11.00;99.90
70074;DHT22;57445;51.058;3.698;2023-04-24T07:44:19;11.10;99.90
70074;DHT22;57445;51.058;3.698;2023-04-24T07:46:47;10.80;99.90
70074;DHT22;57445;51.058;3.698;2023-04-24T07:49:20;10.80;99.90
70074;DHT22;57445;51.058;3.698;2023-04-24T07:51:52;10.90;99.90
70074;DHT22;57445;51.058;3.698;2023-04-24T07:54:19;10.80;99.90
70074;DHT22;57445;51.058;3.698;2023-04-24T07:56:47;10.80;99.90
70074;DHT22;57445;51.058;3.698;2023-04-24T07:59:15;10.80;99.90
70074;DHT22;57445;51.058;3.698;2023-04-24T08:01:47;10.80;99.90
70074;DHT22;57445;51.058;3.698;2023-04-24T08:04:14;10.90;99.90
70074;DHT22;57445;51.058;3.698;2023-04-24T08:06:43;10.80;99.90
70074;DHT22;57445;51.058;3.698;2023-04-24T08:09:11;10.80;99.90
70074;DHT22;57445;51.058;3.698;2023-04-24T08:11:38;10.80;99.90
70074;DHT22;57445;51.058;3.698;2023-04-24T08:14:10;10.90;99.90
70074;DHT22;57445;51.058;3.698;2023-04-24T08:16:43;11.10;99.90
70074;DHT22;57445;51.058;3.698;2023-04-24T08:19:15;11.20;99.90
70074;DHT22;57445;51.058;3.698;2023-04-24T08:21:48;11.30;99.90
70074;DHT22;57445;51.058;3.698;2023-04-24T08:24:22;11.20;99.90
70074;DHT22;57445;51.058;3.698;2023-04-24T08:26:54;11.30;99.90
70074;DHT22;57445;51.058;3.698;2023-04-24T08:29:28;11.20;99.90
70074;DHT22;57445;51.058;3.698;2023-04-24T08:32:00;11.20;99.90
70074;DHT22;57445;51.058;3.698;2023-04-24T08:34:32;11.50;99.90
70074;DHT22;57445;51.058;3.698;2023-04-24T08:37:05;11.80;98.20
70074;DHT22;57445;51.058;3.698;2023-04-24T08:39:40;11.70;97.70
70074;DHT22;57445;51.058;3.698;2023-04-24T08:42:12;11.60;97.40
70074;DHT22;57445;51.058;3.698;2023-04-24T08:44:41;11.60;98.10
70074;DHT22;57445;51.058;3.698;2023-04-24T08:47:13;11.90;97.40
70074;DHT22;57445;51.058;3.698;2023-04-24T08:49:46;11.80;96.20
70074;DHT22;57445;51.058;3.698;2023-04-24T08:52:21;11.80;96.10
70074;DHT22;57445;51.058;3.698;2023-04-24T08:54:48;11.60;96.80
70074;DHT22;57445;51.058;3.698;2023-04-24T08:57:16;11.60;97.30
70074;DHT22;57445;51.058;3.698;2023-04-24T08:59:48;11.60;97.80
70074;DHT22;57445;51.058;3.698;2023-04-24T09:02:16;11.60;98.00
70074;DHT22;57445;51.058;3.698;2023-04-24T09:04:48;11.60;96.60
70074;DHT22;57445;51.058;3.698;2023-04-24T09:07:16;11.90;97.10
70074;DHT22;57445;51.058;3.698;2023-04-24T09:09:50;12.00;96.00
70074;DHT22;57445;51.058;3.698;2023-04-24T09:12:18;12.10;95.20
70074;DHT22;57445;51.058;3.698;2023-04-24T09:14:50;12.20;95.70
70074;DHT22;57445;51.058;3.698;2023-04-24T09:17:18;12.10;95.10
70074;DHT22;57445;51.058;3.698;2023-04-24T09:19:50;12.00;95.30
70074;DHT22;57445;51.058;3.698;2023-04-24T09:22:23;11.80;95.70
70074;DHT22;57445;51.058;3.698;2023-04-24T09:25:00;11.80;95.90
70074;DHT22;57445;51.058;3.698;2023-04-24T09:27:33;11.80;95.90
70074;DHT22;57445;51.058;3.698;2023-04-24T09:30:06;11.80;95.60
70074;DHT22;57445;51.058;3.698;2023-04-24T09:32:38;12.00;95.50
70074;DHT22;57445;51.058;3.698;2023-04-24T09:35:12;12.10;96.00
70074;DHT22;57445;51.058;3.698;2023-04-24T09:37:45;12.10;95.80
70074;DHT22;57445;51.058;3.698;2023-04-24T09:40:16;12.10;95.70
70074;DHT22;57445;51.058;3.698;2023-04-24T09:42:51;12.30;96.10
70074;DHT22;57445;51.058;3.698;2023-04-24T09:45:19;12.60;95.50
70074;DHT22;57445;51.058;3.698;2023-04-24T09:47:51;12.30;95.70
70074;DHT22;57445;51.058;3.698;2023-04-24T09:50:24;12.50;95.70
70074;DHT22;57445;51.058;3.698;2023-04-24T09:52:56;12.40;94.40
70074;DHT22;57445;51.058;3.698;2023-04-24T09:55:29;12.50;94.80
70074;DHT22;57445;51.058;3.698;2023-04-24T09:58:01;12.50;94.90
70074;DHT22;57445;51.058;3.698;2023-04-24T10:00:35;12.70;94.00
70074;DHT22;57445;51.058;3.698;2023-04-24T10:03:07;12.20;93.90
70074;DHT22;57445;51.058;3.698;2023-04-24T10:05:39;12.20;94.10
70074;DHT22;57445;51.058;3.698;2023-04-24T10:08:11;12.40;94.00
70074;DHT22;57445;51.058;3.698;2023-04-24T10:10:45;12.30;93.50
70074;DHT22;57445;51.058;3.698;2023-04-24T10:13:13;12.30;93.80
70074;DHT22;57445;51.058;3.698;2023-04-24T10:15:45;12.50;93.90
70074;DHT22;57445;51.058;3.698;2023-04-24T10:18:18;12.50;93.30
70074;DHT22;57445;51.058;3.698;2023-04-24T10:20:52;12.50;93.60
70074;DHT22;57445;51.058;3.698;2023-04-24T10:23:20;12.50;93.20
70074;DHT22;57445;51.058;3.698;2023-04-24T10:25:50;12.40;93.30
70074;DHT22;57445;51.058;3.698;2023-04-24T10:28:17;12.40;92.70
70074;DHT22;57445;51.058;3.698;2023-04-24T10:30:50;12.60;93.00
70074;DHT22;57445;51.058;3.698;2023-04-24T10:33:25;12.70;92.40
70074;DHT22;57445;51.058;3.698;2023-04-24T10:35:58;12.90;92.30
70074;DHT22;57445;51.058;3.698;2023-04-24T10:38:31;13.00;91.90
70074;DHT22;57445;51.058;3.698;2023-04-24T10:41:11;13.00;91.60
70074;DHT22;57445;51.058;3.698;2023-04-24T10:43:46;13.10;91.60
70074;DHT22;57445;51.058;3.698;2023-04-24T10:46:21;12.70;92.30
70074;DHT22;57445;51.058;3.698;2023-04-24T10:48:53;12.70;92.80
70074;DHT22;57445;51.058;3.698;2023-04-24T10:51:42;12.80;92.50
70074;DHT22;57445;51.058;3.698;2023-04-24T10:54:21;12.90;91.70
70074;DHT22;57445;51.058;3.698;2023-04-24T10:56:56;12.80;91.80
70074;DHT22;57445;51.058;3.698;2023-04-24T10:59:47;13.00;91.70
70074;DHT22;57445;51.058;3.698;2023-04-24T11:02:19;13.10;91.50
70074;DHT22;57445;51.058;3.698;2023-04-24T11:05:07;12.80;91.80
70074;DHT22;57445;51.058;3.698;2023-04-24T11:10:24;12.60;91.40
70074;DHT22;57445;51.058;3.698;2023-04-24T11:12:58;12.70;91.80
70074;DHT22;57445;51.058;3.698;2023-04-24T11:15:30;13.00;91.30
70074;DHT22;57445;51.058;3.698;2023-04-24T11:18:01;13.50;90.60
70074;DHT22;57445;51.058;3.698;2023-04-24T11:20:34;13.40;91.10
70074;DHT22;57445;51.058;3.698;2023-04-24T11:23:05;13.80;90.40
70074;DHT22;57445;51.058;3.698;2023-04-24T11:25:35;14.00;90.30
70074;DHT22;57445;51.058;3.698;2023-04-24T11:28:04;14.10;89.80
70074;DHT22;57445;51.058;3.698;2023-04-24T11:30:36;13.80;90.20
70074;DHT22;57445;51.058;3.698;2023-04-24T11:33:11;13.70;90.40
70074;DHT22;57445;51.058;3.698;2023-04-24T11:35:43;13.80;90.20
70074;DHT22;57445;51.058;3.698;2023-04-24T11:38:15;13.60;90.30
70074;DHT22;57445;51.058;3.698;2023-04-24T11:40:46;13.60;90.30
70074;DHT22;57445;51.058;3.698;2023-04-24T11:43:16;13.80;89.10
70074;DHT22;57445;51.058;3.698;2023-04-24T11:45:47;13.50;89.30
70074;DHT22;57445;51.058;3.698;2023-04-24T11:48:19;13.40;90.20
70074;DHT22;57445;51.058;3.698;2023-04-24T11:50:52;13.30;89.80
70074;DHT22;57445;51.058;3.698;2023-04-24T11:53:19;13.20;89.00
70074;DHT22;57445;51.058;3.698;2023-04-24T11:55:50;13.20;89.30
70074;DHT22;57445;51.058;3.698;2023-04-24T11:58:23;13.50;89.30
70074;DHT22;57445;51.058;3.698;2023-04-24T12:00:58;13.80;88.70
70074;DHT22;57445;51.058;3.698;2023-04-24T12:03:30;13.60;88.50
70074;DHT22;57445;51.058;3.698;2023-04-24T12:06:04;13.60;89.50
70074;DHT22;57445;51.058;3.698;2023-04-24T12:08:32;13.40;88.70
70074;DHT22;57445;51.058;3.698;2023-04-24T12:11:05;13.30;89.50
70074;DHT22;57445;51.058;3.698;2023-04-24T12:13:34;13.00;89.60
70074;DHT22;57445;51.058;3.698;2023-04-24T12:16:06;13.20;89.70
70074;DHT22;57445;51.058;3.698;2023-04-24T12:18:42;13.20;89.50
70074;DHT22;57445;51.058;3.698;2023-04-24T12:21:16;13.40;89.50
70074;DHT22;57445;51.058;3.698;2023-04-24T12:23:48;13.60;87.80
70074;DHT22;57445;51.058;3.698;2023-04-24T12:26:21;13.70;87.00
70074;DHT22;57445;51.058;3.698;2023-04-24T12:28:50;13.70;86.10
70074;DHT22;57445;51.058;3.698;2023-04-24T12:31:22;13.60;85.60
70074;DHT22;57445;51.058;3.698;2023-04-24T12:33:54;13.30;87.00
70074;DHT22;57445;51.058;3.698;2023-04-24T12:36:26;13.20;86.80
70074;DHT22;57445;51.058;3.698;2023-04-24T12:38:54;13.20;87.80
70074;DHT22;57445;51.058;3.698;2023-04-24T12:41:25;13.20;88.40
70074;DHT22;57445;51.058;3.698;2023-04-24T12:43:59;12.80;89.80
70074;DHT22;57445;51.058;3.698;2023-04-24T12:46:26;12.50;89.80
70074;DHT22;57445;51.058;3.698;2023-04-24T12:48:58;12.60;89.80
70074;DHT22;57445;51.058;3.698;2023-04-24T12:51:25;12.70;89.40
70074;DHT22;57445;51.058;3.698;2023-04-24T12:53:57;12.60;87.80
70074;DHT22;57445;51.058;3.698;2023-04-24T12:56:25;12.40;88.30
70074;DHT22;57445;51.058;3.698;2023-04-24T12:58:58;12.30;89.30
70074;DHT22;57445;51.058;3.698;2023-04-24T13:01:30;12.40;88.70
70074;DHT22;57445;51.058;3.698;2023-04-24T13:03:58;12.40;88.10
70074;DHT22;57445;51.058;3.698;2023-04-24T13:06:30;12.50;88.40
70074;DHT22;57445;51.058;3.698;2023-04-24T13:09:02;12.60;88.90
70074;DHT22;57445;51.058;3.698;2023-04-24T13:11:30;12.70;87.80
70074;DHT22;57445;51.058;3.698;2023-04-24T13:13:59;12.80;88.30
70074;DHT22;57445;51.058;3.698;2023-04-24T13:16:27;13.00;87.20
70074;DHT22;57445;51.058;3.698;2023-04-24T13:18:58;12.70;87.90
70074;DHT22;57445;51.058;3.698;2023-04-24T13:21:26;12.60;88.70
70074;DHT22;57445;51.058;3.698;2023-04-24T13:23:58;12.80;88.10
70074;DHT22;57445;51.058;3.698;2023-04-24T13:26:30;12.90;86.50
70074;DHT22;57445;51.058;3.698;2023-04-24T13:29:03;12.70;84.70
70074;DHT22;57445;51.058;3.698;2023-04-24T13:31:35;12.70;85.90
70074;DHT22;57445;51.058;3.698;2023-04-24T13:34:07;12.70;87.40
70074;DHT22;57445;51.058;3.698;2023-04-24T13:36:39;13.00;86.50
70074;DHT22;57445;51.058;3.698;2023-04-24T13:39:11;13.00;87.90
70074;DHT22;57445;51.058;3.698;2023-04-24T13:41:38;13.20;86.10
70074;DHT22;57445;51.058;3.698;2023-04-24T13:44:12;12.90;87.30
70074;DHT22;57445;51.058;3.698;2023-04-24T13:46:39;12.70;87.70
70074;DHT22;57445;51.058;3.698;2023-04-24T13:49:12;13.00;87.70
70074;DHT22;57445;51.058;3.698;2023-04-24T13:51:44;13.20;87.20
70074;DHT22;57445;51.058;3.698;2023-04-24T13:54:11;13.60;85.20
70074;DHT22;57445;51.058;3.698;2023-04-24T13:56:39;13.80;85.10
70074;DHT22;57445;51.058;3.698;2023-04-24T13:59:06;13.70;84.60
70074;DHT22;57445;51.058;3.698;2023-04-24T14:01:36;13.60;84.40
70074;DHT22;57445;51.058;3.698;2023-04-24T14:04:08;13.60;84.40
70074;DHT22;57445;51.058;3.698;2023-04-24T14:06:39;13.30;82.80
70074;DHT22;57445;51.058;3.698;2023-04-24T14:09:07;13.30;83.10
70074;DHT22;57445;51.058;3.698;2023-04-24T14:11:39;13.40;83.10
70074;DHT22;57445;51.058;3.698;2023-04-24T14:14:06;13.40;83.40
70074;DHT22;57445;51.058;3.698;2023-04-24T14:16:35;13.60;83.50
70074;DHT22;57445;51.058;3.698;2023-04-24T14:19:03;13.30;84.30
70074;DHT22;57445;51.058;3.698;2023-04-24T14:21:31;13.30;85.10
70074;DHT22;57445;51.058;3.698;2023-04-24T14:24:04;12.80;86.00
70074;DHT22;57445;51.058;3.698;2023-04-24T14:26:36;12.60;86.50
70074;DHT22;57445;51.058;3.698;2023-04-24T14:29:08;12.70;86.20
70074;DHT22;57445;51.058;3.698;2023-04-24T14:31:41;13.00;84.60
70074;DHT22;57445;51.058;3.698;2023-04-24T14:34:13;13.70;83.40
70074;DHT22;57445;51.058;3.698;2023-04-24T14:36:41;13.90;81.70
70074;DHT22;57445;51.058;3.698;2023-04-24T14:39:08;13.70;81.50
70074;DHT22;57445;51.058;3.698;2023-04-24T14:41:36;13.60;82.60
70074;DHT22;57445;51.058;3.698;2023-04-24T14:44:09;13.50;82.90
70074;DHT22;57445;51.058;3.698;2023-04-24T14:46:37;13.90;83.20
70074;DHT22;57445;51.058;3.698;2023-04-24T14:49:06;14.20;82.60
70074;DHT22;57445;51.058;3.698;2023-04-24T14:51:35;14.30;81.20
70074;DHT22;57445;51.058;3.698;2023-04-24T14:54:03;14.40;80.90
70074;DHT22;57445;51.058;3.698;2023-04-24T14:56:30;14.80;80.90
70074;DHT22;57445;51.058;3.698;2023-04-24T14:59:02;14.60;80.60
70074;DHT22;57445;51.058;3.698;2023-04-24T15:01:30;14.40;79.90
70074;DHT22;57445;51.058;3.698;2023-04-24T15:03:57;14.10;79.60
70074;DHT22;57445;51.058;3.698;2023-04-24T15:06:31;13.90;81.60
70074;DHT22;57445;51.058;3.698;2023-04-24T15:09:03;14.10;82.50
70074;DHT22;57445;51.058;3.698;2023-04-24T15:11:35;14.20;81.10
70074;DHT22;57445;51.058;3.698;2023-04-24T15:14:02;13.80;81.50
70074;DHT22;57445;51.058;3.698;2023-04-24T15:16:30;13.90;81.10
70074;DHT22;57445;51.058;3.698;2023-04-24T15:18:58;14.40;80.50
70074;DHT22;57445;51.058;3.698;2023-04-24T15:21:26;14.80;78.10
70074;DHT22;57445;51.058;3.698;2023-04-24T15:23:54;14.90;78.00
70074;DHT22;57445;51.058;3.698;2023-04-24T15:26:26;15.00;76.70
70074;DHT22;57445;51.058;3.698;2023-04-24T15:28:54;14.70;76.90
70074;DHT22;57445;51.058;3.698;2023-04-24T15:31:21;14.50;76.70
70074;DHT22;57445;51.058;3.698;2023-04-24T15:33:53;14.30;77.10
70074;DHT22;57445;51.058;3.698;2023-04-24T15:36:25;14.10;77.10
70074;DHT22;57445;51.058;3.698;2023-04-24T15:38:55;14.30;77.60
70074;DHT22;57445;51.058;3.698;2023-04-24T15:41:27;14.40;77.10
70074;DHT22;57445;51.058;3.698;2023-04-24T15:43:54;14.40;77.90
70074;DHT22;57445;51.058;3.698;2023-04-24T15:46:26;14.80;77.10
70074;DHT22;57445;51.058;3.698;2023-04-24T15:48:58;14.80;76.60
70074;DHT22;57445;51.058;3.698;2023-04-24T15:51:30;15.00;76.80
70074;DHT22;57445;51.058;3.698;2023-04-24T15:53:59;15.40;74.90
70074;DHT22;57445;51.058;3.698;2023-04-24T15:56:31;15.60;74.50
70074;DHT22;57445;51.058;3.698;2023-04-24T15:59:03;15.10;74.80